sensor_id;sensor_type;location;lat;lon;timestamp;temperature;humidity
20650;DHT22;10484;48.736;9.332;2024-03-23T00:55:11;9.50;1.00
20650;DHT22;10484;48.736;9.332;2024-03-23T00:57:37;9.40;1.00
20650;DHT22;10484;48.736;9.332;2024-03-23T01:00:03;9.40;1.00
20650;DHT22;10484;48.736;9.332;2024-03-23T01:02:31;9.30;1.00
20650;DHT22;10484;48.736;9.332;2024-03-23T01:04:57;9.30;1.00
20650;DHT22;10484;48.736;9.332;2024-03-23T01:07:22;9.30;1.00
20650;DHT22;10484;48.736;9.332;2024-03-23T01:09:48;9.20;1.00
20650;DHT22;10484;48.736;9.332;2024-03-23T01:12:13;9.20;1.00
20650;DHT22;10484;48.736;9.332;2024-03-23T01:14:39;9.20;1.00
20650;DHT22;10484;48.736;9.332;2024-03-23T01:17:04;9.20;1.00
20650;DHT22;10484;48.736;9.332;2024-03-23T01:19:30;9.20;1.00
20650;DHT22;10484;48.736;9.332;2024-03-23T01:21:56;9.10;1.00
20650;DHT22;10484;48.736;9.332;2024-03-23T01:24:21;9.10;1.00
20650;DHT22;10484;48.736;9.332;2024-03-23T01:26:47;9.10;1.00
20650;DHT22;10484;48.736;9.332;2024-03-23T01:29:12;9.00;1.00
20650;DHT22;10484;48.736;9.332;2024-03-23T01:31:38;9.00;1.00
20650;DHT22;10484;48.736;9.332;2024-03-23T01:34:03;9.00;1.00
20650;DHT22;10484;48.736;9.332;2024-03-23T01:36:29;9.00;1.00
20650;DHT22;10484;48.736;9.332;2024-03-23T01:38:54;9.00;1.00
20650;DHT22;10484;48.736;9.332;2024-03-23T01:41:20;8.90;1.00
20650;DHT22;10484;48.736;9.332;2024-03-23T01:43:46;8.90;1.00
20650;DHT22;10484;48.736;9.332;2024-03-23T01:46:12;8.90;1.00
20650;DHT22;10484;48.736;9.332;2024-03-23T01:48:38;8.90;1.00
20650;DHT22;10484;48.736;9.332;2024-03-23T01:51:04;8.90;1.00
20650;DHT22;10484;48.736;9.332;2024-03-23T01:53:30;8.90;1.00
20650;DHT22;10484;48.736;9.332;2024-03-23T01:55:56;8.80;1.00
20650;DHT22;10484;48.736;9.332;2024-03-23T01:58:22;8.80;1.00
20650;DHT22;10484;48.736;9.332;2024-03-23T02:00:48;8.80;1.00
20650;DHT22;10484;48.736;9.332;2024-03-23T02:03:27;8.80;1.00
20650;DHT22;10484;48.736;9.332;2024-03-23T02:05:54;8.80;1.00
20650;DHT22;10484;48.736;9.332;2024-03-23T02:08:21;8.80;1.00
20650;DHT22;10484;48.736;9.332;2024-03-23T02:10:48;8.70;1.00
20650;DHT22;10484;48.736;9.332;2024-03-23T02:13:15;8.70;1.00
20650;DHT22;10484;48.736;9.332;2024-03-23T02:15:41;8.70;1.00
20650;DHT22;10484;48.736;9.332;2024-03-23T02:18:08;8.70;1.00
20650;DHT22;10484;48.736;9.332;2024-03-23T02:20:37;8.70;1.00
20650;DHT22;10484;48.736;9.332;2024-03-23T02:23:03;8.60;1.00
20650;DHT22;10484;48.736;9.332;2024-03-23T02:25:31;8.60;1.00
20650;DHT22;10484;48.736;9.332;2024-03-23T02:27:57;8.60;1.00
20650;DHT22;10484;48.736;9.332;2024-03-23T02:30:24;8.60;1.00
20650;DHT22;10484;48.736;9.332;2024-03-23T02:32:50;8.60;1.00
20650;DHT22;10484;48.736;9.332;2024-03-23T02:35:16;8.50;1.00
20650;DHT22;10484;48.736;9.332;2024-03-23T02:37:41;8.50;1.00
20650;DHT22;10484;48.736;9.332;2024-03-23T02:40:07;8.50;1.00
20650;DHT22;10484;48.736;9.332;2024-03-23T02:42:33;8.40;1.00
20650;DHT22;10484;48.736;9.332;2024-03-23T02:44:59;8.40;1.00
20650;DHT22;10484;48.736;9.332;2024-03-23T02:47:24;8.40;1.00
20650;DHT22;10484;48.736;9.332;2024-03-23T02:49:50;8.40;1.00
20650;DHT22;10484;48.736;9.332;2024-03-23T02:52:15;8.40;1.00
20650;DHT22;10484;48.736;9.332;2024-03-23T02:54:41;8.30;1.00
20650;DHT22;10484;48.736;9.332;2024-03-23T02:57:10;8.30;1.00
20650;DHT22;10484;48.736;9.332;2024-03-23T02:59:35;8.20;1.00
20650;DHT22;10484;48.736;9.332;2024-03-23T03:02:01;8.20;1.00
20650;DHT22;10484;48.736;9.332;2024-03-23T03:04:27;8.20;1.00
20650;DHT22;10484;48.736;9.332;2024-03-23T03:06:52;8.20;1.00
20650;DHT22;10484;48.736;9.332;2024-03-23T03:09:18;8.20;1.00
20650;DHT22;10484;48.736;9.332;2024-03-23T03:11:43;8.20;1.00
20650;DHT22;10484;48.736;9.332;2024-03-23T03:14:09;8.10;1.00
20650;DHT22;10484;48.736;9.332;2024-03-23T03:16:34;8.10;1.00
20650;DHT22;10484;48.736;9.332;2024-03-23T03:19:00;8.10;1.00
20650;DHT22;10484;48.736;9.332;2024-03-23T03:21:26;8.10;1.00
20650;DHT22;10484;48.736;9.332;2024-03-23T03:23:52;8.10;1.00
20650;DHT22;10484;48.736;9.332;2024-03-23T03:26:18;8.10;1.00
20650;DHT22;10484;48.736;9.332;2024-03-23T03:28:43;8.00;1.00
20650;DHT22;10484;48.736;9.332;2024-03-23T03:31:16;8.00;1.00
20650;DHT22;10484;48.736;9.332;2024-03-23T03:33:42;7.90;1.00
20650;DHT22;10484;48.736;9.332;2024-03-23T03:36:08;7.90;1.00
20650;DHT22;10484;48.736;9.332;2024-03-23T03:38:33;7.90;1.00
20650;DHT22;10484;48.736;9.332;2024-03-23T03:41:02;7.90;1.00
20650;DHT22;10484;48.736;9.332;2024-03-23T03:43:28;7.80;1.00
20650;DHT22;10484;48.736;9.332;2024-03-23T03:45:55;7.80;1.00
20650;DHT22;10484;48.736;9.332;2024-03-23T03:48:21;7.80;1.00
20650;DHT22;10484;48.736;9.332;2024-03-23T03:50:47;7.80;1.00
20650;DHT22;10484;48.736;9.332;2024-03-23T03:53:13;7.80;1.00
20650;DHT22;10484;48.736;9.332;2024-03-23T03:55:38;7.70;1.00
20650;DHT22;10484;48.736;9.332;2024-03-23T03:58:04;7.70;1.00
20650;DHT22;10484;48.736;9.332;2024-03-23T04:00:30;7.70;1.00
20650;DHT22;10484;48.736;9.332;2024-03-23T04:02:56;7.70;1.00
20650;DHT22;10484;48.736;9.332;2024-03-23T04:05:22;7.60;1.00
20650;DHT22;10484;48.736;9.332;2024-03-23T04:07:47;7.60;1.00
20650;DHT22;10484;48.736;9.332;2024-03-23T04:10:13;7.60;1.00
20650;DHT22;10484;48.736;9.332;2024-03-23T04:12:39;7.60;1.00
20650;DHT22;10484;48.736;9.332;2024-03-23T04:15:05;7.60;1.00
20650;DHT22;10484;48.736;9.332;2024-03-23T04:17:31;7.50;1.00
20650;DHT22;10484;48.736;9.332;2024-03-23T04:19:58;7.50;1.00
20650;DHT22;10484;48.736;9.332;2024-03-23T04:22:24;7.50;1.00
20650;DHT22;10484;48.736;9.332;2024-03-23T04:24:55;7.50;1.00
20650;DHT22;10484;48.736;9.332;2024-03-23T04:27:20;7.40;1.00
20650;DHT22;10484;48.736;9.332;2024-03-23T04:29:50;7.40;1.00
20650;DHT22;10484;48.736;9.332;2024-03-23T04:32:16;7.40;1.00
20650;DHT22;10484;48.736;9.332;2024-03-23T04:34:42;7.40;1.00
20650;DHT22;10484;48.736;9.332;2024-03-23T04:37:09;7.40;1.00
20650;DHT22;10484;48.736;9.332;2024-03-23T04:39:36;7.40;1.00
20650;DHT22;10484;48.736;9.332;2024-03-23T04:42:02;7.40;1.00
20650;DHT22;10484;48.736;9.332;2024-03-23T04:44:28;7.40;1.00
20650;DHT22;10484;48.736;9.332;2024-03-23T04:46:54;7.40;1.00
20650;DHT22;10484;48.736;9.332;2024-03-23T04:49:19;7.40;1.00
20650;DHT22;10484;48.736;9.332;2024-03-23T04:51:45;7.40;1.00
20650;DHT22;10484;48.736;9.332;2024-03-23T04:54:15;7.40;1.00
20650;DHT22;10484;48.736;9.332;2024-03-23T04:56:41;7.30;1.00
20650;DHT22;10484;48.736;9.332;2024-03-23T04:59:07;7.30;1.00
20650;DHT22;10484;48.736;9.332;2024-03-23T05:01:33;7.40;1.00
20650;DHT22;10484;48.736;9.332;2024-03-23T05:03:58;7.40;1.00
20650;DHT22;10484;48.736;9.332;2024-03-23T05:06:24;7.40;1.00
20650;DHT22;10484;48.736;9.332;2024-03-23T05:08:51;7.40;1.00
20650;DHT22;10484;48.736;9.332;2024-03-23T05:11:16;7.40;1.00
20650;DHT22;10484;48.736;9.332;2024-03-23T05:13:42;7.50;1.00
20650;DHT22;10484;48.736;9.332;2024-03-23T05:16:08;7.60;1.00
20650;DHT22;10484;48.736;9.332;2024-03-23T05:18:34;7.80;1.00
20650;DHT22;10484;48.736;9.332;2024-03-23T05:21:00;7.90;1.00
20650;DHT22;10484;48.736;9.332;2024-03-23T05:23:26;8.00;8.40
20650;DHT22;10484;48.736;9.332;2024-03-23T05:25:53;8.10;15.10
20650;DHT22;10484;48.736;9.332;2024-03-23T05:28:18;8.20;27.30
20650;DHT22;10484;48.736;9.332;2024-03-23T05:30:53;8.30;35.20
20650;DHT22;10484;48.736;9.332;2024-03-23T05:33:22;8.30;35.70
20650;DHT22;10484;48.736;9.332;2024-03-23T05:35:56;8.40;35.90
20650;DHT22;10484;48.736;9.332;2024-03-23T05:38:22;8.40;35.90
20650;DHT22;10484;48.736;9.332;2024-03-23T05:40:58;8.40;39.60
20650;DHT22;10484;48.736;9.332;2024-03-23T05:43:25;8.40;46.60
20650;DHT22;10484;48.736;9.332;2024-03-23T05:45:57;8.50;58.30
20650;DHT22;10484;48.736;9.332;2024-03-23T05:48:23;8.50;63.00
20650;DHT22;10484;48.736;9.332;2024-03-23T05:50:50;8.50;75.70
20650;DHT22;10484;48.736;9.332;2024-03-23T05:53:16;8.60;81.20
20650;DHT22;10484;48.736;9.332;2024-03-23T05:55:42;8.60;87.00
20650;DHT22;10484;48.736;9.332;2024-03-23T05:58:08;8.60;90.40
20650;DHT22;10484;48.736;9.332;2024-03-23T06:00:33;8.60;92.00
20650;DHT22;10484;48.736;9.332;2024-03-23T06:02:59;8.60;93.50
20650;DHT22;10484;48.736;9.332;2024-03-23T06:05:25;8.70;95.30
20650;DHT22;10484;48.736;9.332;2024-03-23T06:07:50;8.70;96.00
20650;DHT22;10484;48.736;9.332;2024-03-23T06:10:16;8.70;97.20
20650;DHT22;10484;48.736;9.332;2024-03-23T06:12:42;8.70;97.30
20650;DHT22;10484;48.736;9.332;2024-03-23T06:15:08;8.70;99.10
20650;DHT22;10484;48.736;9.332;2024-03-23T06:17:36;8.70;99.30
20650;DHT22;10484;48.736;9.332;2024-03-23T06:20:02;8.70;98.40
20650;DHT22;10484;48.736;9.332;2024-03-23T06:22:27;8.70;97.50
20650;DHT22;10484;48.736;9.332;2024-03-23T06:24:53;8.70;96.90
20650;DHT22;10484;48.736;9.332;2024-03-23T06:27:19;8.70;95.60
20650;DHT22;10484;48.736;9.332;2024-03-23T06:29:44;8.70;93.40
20650;DHT22;10484;48.736;9.332;2024-03-23T06:32:10;8.70;92.10
20650;DHT22;10484;48.736;9.332;2024-03-23T06:34:35;8.70;90.20
20650;DHT22;10484;48.736;9.332;2024-03-23T06:37:01;8.70;86.20
20650;DHT22;10484;48.736;9.332;2024-03-23T06:39:27;8.70;81.60
20650;DHT22;10484;48.736;9.332;2024-03-23T06:41:54;8.70;77.10
20650;DHT22;10484;48.736;9.332;2024-03-23T06:44:20;8.70;72.60
20650;DHT22;10484;48.736;9.332;2024-03-23T06:46:45;8.70;68.10
20650;DHT22;10484;48.736;9.332;2024-03-23T06:49:11;8.70;61.80
20650;DHT22;10484;48.736;9.332;2024-03-23T06:51:37;8.70;53.30
20650;DHT22;10484;48.736;9.332;2024-03-23T06:54:03;8.70;44.90
20650;DHT22;10484;48.736;9.332;2024-03-23T06:56:29;8.80;36.90
20650;DHT22;10484;48.736;9.332;2024-03-23T06:58:56;8.80;36.50
20650;DHT22;10484;48.736;9.332;2024-03-23T07:01:21;8.80;36.20
20650;DHT22;10484;48.736;9.332;2024-03-23T07:03:47;8.80;36.30
20650;DHT22;10484;48.736;9.332;2024-03-23T07:06:13;8.80;36.20
20650;DHT22;10484;48.736;9.332;2024-03-23T07:08:38;8.80;36.20
20650;DHT22;10484;48.736;9.332;2024-03-23T07:11:04;8.80;35.50
20650;DHT22;10484;48.736;9.332;2024-03-23T07:13:30;8.80;28.70
20650;DHT22;10484;48.736;9.332;2024-03-23T07:15:55;8.80;26.60
20650;DHT22;10484;48.736;9.332;2024-03-23T07:18:21;8.80;24.80
20650;DHT22;10484;48.736;9.332;2024-03-23T07:20:56;8.80;23.60
20650;DHT22;10484;48.736;9.332;2024-03-23T07:23:23;8.80;21.50
20650;DHT22;10484;48.736;9.332;2024-03-23T07:25:59;8.80;21.40
20650;DHT22;10484;48.736;9.332;2024-03-23T07:28:25;8.80;19.90
20650;DHT22;10484;48.736;9.332;2024-03-23T07:31:09;8.90;18.50
20650;DHT22;10484;48.736;9.332;2024-03-23T07:33:36;8.90;17.70
20650;DHT22;10484;48.736;9.332;2024-03-23T07:36:03;8.90;20.10
20650;DHT22;10484;48.736;9.332;2024-03-23T07:38:29;8.90;14.70
20650;DHT22;10484;48.736;9.332;2024-03-23T07:41:08;8.90;13.60
20650;DHT22;10484;48.736;9.332;2024-03-23T07:43:35;8.90;12.10
20650;DHT22;10484;48.736;9.332;2024-03-23T07:46:01;8.90;10.20
20650;DHT22;10484;48.736;9.332;2024-03-23T07:48:28;8.90;9.30
20650;DHT22;10484;48.736;9.332;2024-03-23T07:53:27;8.90;8.40
20650;DHT22;10484;48.736;9.332;2024-03-23T07:55:57;9.00;8.60
20650;DHT22;10484;48.736;9.332;2024-03-23T07:58:24;9.00;8.50
20650;DHT22;10484;48.736;9.332;2024-03-23T08:00:50;9.00;8.90
20650;DHT22;10484;48.736;9.332;2024-03-23T08:03:15;9.00;7.20
20650;DHT22;10484;48.736;9.332;2024-03-23T08:05:41;9.00;6.20
20650;DHT22;10484;48.736;9.332;2024-03-23T08:08:06;9.00;5.80
20650;DHT22;10484;48.736;9.332;2024-03-23T08:10:32;9.00;6.10
20650;DHT22;10484;48.736;9.332;2024-03-23T08:12:58;9.00;7.90
20650;DHT22;10484;48.736;9.332;2024-03-23T08:15:23;9.00;9.40
20650;DHT22;10484;48.736;9.332;2024-03-23T08:17:50;9.00;10.40
20650;DHT22;10484;48.736;9.332;2024-03-23T08:20:15;9.00;10.70
20650;DHT22;10484;48.736;9.332;2024-03-23T08:22:41;9.00;11.20
20650;DHT22;10484;48.736;9.332;2024-03-23T08:25:06;8.90;11.40
20650;DHT22;10484;48.736;9.332;2024-03-23T08:27:32;8.90;11.50
20650;DHT22;10484;48.736;9.332;2024-03-23T08:29:58;8.90;14.90
20650;DHT22;10484;48.736;9.332;2024-03-23T08:32:24;8.90;10.60
20650;DHT22;10484;48.736;9.332;2024-03-23T08:34:49;8.90;9.40
20650;DHT22;10484;48.736;9.332;2024-03-23T08:37:15;8.90;7.60
20650;DHT22;10484;48.736;9.332;2024-03-23T08:39:43;8.90;7.10
20650;DHT22;10484;48.736;9.332;2024-03-23T08:42:08;8.90;6.90
20650;DHT22;10484;48.736;9.332;2024-03-23T08:44:34;9.00;6.10
20650;DHT22;10484;48.736;9.332;2024-03-23T08:47:00;9.00;5.40
20650;DHT22;10484;48.736;9.332;2024-03-23T08:49:26;9.00;5.50
20650;DHT22;10484;48.736;9.332;2024-03-23T08:51:52;9.10;4.50
20650;DHT22;10484;48.736;9.332;2024-03-23T08:54:17;9.10;4.00
20650;DHT22;10484;48.736;9.332;2024-03-23T08:56:45;9.20;3.00
20650;DHT22;10484;48.736;9.332;2024-03-23T08:59:11;9.20;1.50
20650;DHT22;10484;48.736;9.332;2024-03-23T09:01:36;9.10;1.00
20650;DHT22;10484;48.736;9.332;2024-03-23T09:04:03;9.10;1.00
20650;DHT22;10484;48.736;9.332;2024-03-23T09:06:29;9.10;1.00
20650;DHT22;10484;48.736;9.332;2024-03-23T09:08:55;9.10;1.00
20650;DHT22;10484;48.736;9.332;2024-03-23T09:11:20;9.10;1.00
20650;DHT22;10484;48.736;9.332;2024-03-23T09:13:46;9.20;1.00
20650;DHT22;10484;48.736;9.332;2024-03-23T09:16:12;9.10;1.00
20650;DHT22;10484;48.736;9.332;2024-03-23T09:18:38;9.10;1.00
20650;DHT22;10484;48.736;9.332;2024-03-23T09:21:04;9.00;1.00
20650;DHT22;10484;48.736;9.332;2024-03-23T09:23:36;9.00;1.00
20650;DHT22;10484;48.736;9.332;2024-03-23T09:26:04;9.00;1.00
20650;DHT22;10484;48.736;9.332;2024-03-23T09:28:30;8.90;1.00
20650;DHT22;10484;48.736;9.332;2024-03-23T09:31:02;8.90;1.00
20650;DHT22;10484;48.736;9.332;2024-03-23T09:33:28;8.90;1.00
20650;DHT22;10484;48.736;9.332;2024-03-23T09:35:54;8.90;1.00
20650;DHT22;10484;48.736;9.332;2024-03-23T09:38:22;8.90;1.00
20650;DHT22;10484;48.736;9.332;2024-03-23T09:40:53;9.00;1.00
20650;DHT22;10484;48.736;9.332;2024-03-23T09:43:19;9.00;1.00
20650;DHT22;10484;48.736;9.332;2024-03-23T09:45:45;9.00;1.00
20650;DHT22;10484;48.736;9.332;2024-03-23T09:48:11;9.10;1.00
20650;DHT22;10484;48.736;9.332;2024-03-23T09:50:40;9.20;1.00
20650;DHT22;10484;48.736;9.332;2024-03-23T09:53:06;9.30;1.00
20650;DHT22;10484;48.736;9.332;2024-03-23T09:55:32;9.40;1.00
20650;DHT22;10484;48.736;9.332;2024-03-23T09:57:59;9.50;1.00
20650;DHT22;10484;48.736;9.332;2024-03-23T10:00:25;9.50;1.00
20650;DHT22;10484;48.736;9.332;2024-03-23T10:02:51;9.60;1.00
20650;DHT22;10484;48.736;9.332;2024-03-23T10:05:23;9.60;1.00
20650;DHT22;10484;48.736;9.332;2024-03-23T10:07:52;9.60;1.00
20650;DHT22;10484;48.736;9.332;2024-03-23T10:10:17;9.60;1.00
20650;DHT22;10484;48.736;9.332;2024-03-23T10:12:47;9.60;1.00
20650;DHT22;10484;48.736;9.332;2024-03-23T10:15:22;9.60;1.00
20650;DHT22;10484;48.736;9.332;2024-03-23T10:17:48;9.60;1.00
20650;DHT22;10484;48.736;9.332;2024-03-23T10:20:19;9.60;1.00
20650;DHT22;10484;48.736;9.332;2024-03-23T10:22:46;9.60;1.00
20650;DHT22;10484;48.736;9.332;2024-03-23T10:25:11;9.60;1.00
20650;DHT22;10484;48.736;9.332;2024-03-23T10:27:39;9.70;1.00
20650;DHT22;10484;48.736;9.332;2024-03-23T10:30:13;9.60;1.00
20650;DHT22;10484;48.736;9.332;2024-03-23T10:32:42;9.70;1.00
20650;DHT22;10484;48.736;9.332;2024-03-23T10:37:42;9.70;1.00
20650;DHT22;10484;48.736;9.332;2024-03-23T10:40:10;9.70;1.00
20650;DHT22;10484;48.736;9.332;2024-03-23T10:42:37;9.70;1.00
20650;DHT22;10484;48.736;9.332;2024-03-23T10:45:04;9.70;1.00
20650;DHT22;10484;48.736;9.332;2024-03-23T10:47:31;9.70;1.00
20650;DHT22;10484;48.736;9.332;2024-03-23T10:49:56;9.70;1.00
20650;DHT22;10484;48.736;9.332;2024-03-23T10:52:22;9.80;1.00
20650;DHT22;10484;48.736;9.332;2024-03-23T10:54:50;9.70;1.00
20650;DHT22;10484;48.736;9.332;2024-03-23T10:57:18;9.80;1.00
20650;DHT22;10484;48.736;9.332;2024-03-23T10:59:45;9.80;1.00
20650;DHT22;10484;48.736;9.332;2024-03-23T11:02:21;9.80;1.00
20650;DHT22;10484;48.736;9.332;2024-03-23T11:04:47;9.80;1.00
20650;DHT22;10484;48.736;9.332;2024-03-23T11:07:33;9.80;1.00
20650;DHT22;10484;48.736;9.332;2024-03-23T11:10:00;9.80;1.00
20650;DHT22;10484;48.736;9.332;2024-03-23T11:12:26;9.80;1.00
20650;DHT22;10484;48.736;9.332;2024-03-23T11:15:15;9.70;1.00
20650;DHT22;10484;48.736;9.332;2024-03-23T11:17:41;9.60;1.00
20650;DHT22;10484;48.736;9.332;2024-03-23T11:20:07;9.50;1.00
20650;DHT22;10484;48.736;9.332;2024-03-23T11:25:15;9.30;1.00
20650;DHT22;10484;48.736;9.332;2024-03-23T11:27:43;9.20;1.00
20650;DHT22;10484;48.736;9.332;2024-03-23T11:30:12;9.10;1.00
20650;DHT22;10484;48.736;9.332;2024-03-23T11:32:39;9.00;1.00
20650;DHT22;10484;48.736;9.332;2024-03-23T11:35:05;9.00;1.00
20650;DHT22;10484;48.736;9.332;2024-03-23T11:37:31;9.00;1.00
20650;DHT22;10484;48.736;9.332;2024-03-23T11:39:57;9.10;1.00
20650;DHT22;10484;48.736;9.332;2024-03-23T11:42:22;9.10;1.00
20650;DHT22;10484;48.736;9.332;2024-03-23T11:44:48;9.10;1.00
20650;DHT22;10484;48.736;9.332;2024-03-23T11:47:13;9.10;1.00
20650;DHT22;10484;48.736;9.332;2024-03-23T11:49:39;9.00;1.00
20650;DHT22;10484;48.736;9.332;2024-03-23T11:52:06;9.00;1.00
20650;DHT22;10484;48.736;9.332;2024-03-23T11:54:33;9.00;1.00
20650;DHT22;10484;48.736;9.332;2024-03-23T11:57:00;9.00;1.00
20650;DHT22;10484;48.736;9.332;2024-03-23T11:59:41;9.00;1.00
20650;DHT22;10484;48.736;9.332;2024-03-23T12:02:11;9.00;1.00
20650;DHT22;10484;48.736;9.332;2024-03-23T12:04:37;9.00;1.00
20650;DHT22;10484;48.736;9.332;2024-03-23T12:07:16;9.10;1.00
20650;DHT22;10484;48.736;9.332;2024-03-23T12:10:14;9.10;1.00
20650;DHT22;10484;48.736;9.332;2024-03-23T12:12:44;9.10;1.00
20650;DHT22;10484;48.736;9.332;2024-03-23T12:15:10;9.20;1.00
20650;DHT22;10484;48.736;9.332;2024-03-23T12:17:38;9.20;1.00
20650;DHT22;10484;48.736;9.332;2024-03-23T12:20:04;9.20;1.00
20650;DHT22;10484;48.736;9.332;2024-03-23T12:22:30;9.20;1.00
20650;DHT22;10484;48.736;9.332;2024-03-23T12:24:56;9.20;1.00
20650;DHT22;10484;48.736;9.332;2024-03-23T12:27:22;9.20;1.00
20650;DHT22;10484;48.736;9.332;2024-03-23T12:29:48;9.20;1.00
20650;DHT22;10484;48.736;9.332;2024-03-23T12:32:14;9.20;1.00
20650;DHT22;10484;48.736;9.332;2024-03-23T12:34:40;9.30;1.00
20650;DHT22;10484;48.736;9.332;2024-03-23T12:37:07;9.30;1.00
20650;DHT22;10484;48.736;9.332;2024-03-23T12:39:33;9.30;1.00
20650;DHT22;10484;48.736;9.332;2024-03-23T12:42:01;9.30;1.00
20650;DHT22;10484;48.736;9.332;2024-03-23T12:44:27;9.30;1.00
20650;DHT22;10484;48.736;9.332;2024-03-23T12:46:54;9.30;1.00
20650;DHT22;10484;48.736;9.332;2024-03-23T12:49:19;9.30;1.00
20650;DHT22;10484;48.736;9.332;2024-03-23T12:51:53;9.30;1.00
20650;DHT22;10484;48.736;9.332;2024-03-23T12:54:19;9.30;1.00
20650;DHT22;10484;48.736;9.332;2024-03-23T12:56:46;9.30;1.00
20650;DHT22;10484;48.736;9.332;2024-03-23T12:59:11;9.30;1.00
20650;DHT22;10484;48.736;9.332;2024-03-23T13:01:38;9.40;1.00
20650;DHT22;10484;48.736;9.332;2024-03-23T13:04:04;9.40;1.00
20650;DHT22;10484;48.736;9.332;2024-03-23T13:06:29;9.40;1.00
20650;DHT22;10484;48.736;9.332;2024-03-23T13:09:00;9.40;1.00
20650;DHT22;10484;48.736;9.332;2024-03-23T13:11:26;9.40;1.00
20650;DHT22;10484;48.736;9.332;2024-03-23T13:13:52;9.40;1.00
20650;DHT22;10484;48.736;9.332;2024-03-23T13:16:18;9.40;1.00
20650;DHT22;10484;48.736;9.332;2024-03-23T13:18:43;9.40;1.00
20650;DHT22;10484;48.736;9.332;2024-03-23T13:21:09;9.40;1.00
20650;DHT22;10484;48.736;9.332;2024-03-23T13:23:34;9.40;1.00
20650;DHT22;10484;48.736;9.332;2024-03-23T13:26:01;9.50;1.00
20650;DHT22;10484;48.736;9.332;2024-03-23T13:28:26;9.50;1.00
20650;DHT22;10484;48.736;9.332;2024-03-23T13:30:53;9.50;1.00
20650;DHT22;10484;48.736;9.332;2024-03-23T13:33:19;9.50;1.00
20650;DHT22;10484;48.736;9.332;2024-03-23T13:35:54;9.40;1.00
20650;DHT22;10484;48.736;9.332;2024-03-23T13:38:21;9.50;1.00
20650;DHT22;10484;48.736;9.332;2024-03-23T13:43:20;9.50;1.00
20650;DHT22;10484;48.736;9.332;2024-03-23T13:45:49;9.50;1.00
20650;DHT22;10484;48.736;9.332;2024-03-23T13:48:16;9.50;1.00
20650;DHT22;10484;48.736;9.332;2024-03-23T13:50:43;9.50;1.00
20650;DHT22;10484;48.736;9.332;2024-03-23T13:53:08;9.50;1.00
20650;DHT22;10484;48.736;9.332;2024-03-23T13:55:34;9.50;1.00
20650;DHT22;10484;48.736;9.332;2024-03-23T13:58:01;9.60;1.00
20650;DHT22;10484;48.736;9.332;2024-03-23T14:00:27;9.70;1.00
20650;DHT22;10484;48.736;9.332;2024-03-23T14:02:52;9.80;1.00
20650;DHT22;10484;48.736;9.332;2024-03-23T14:05:18;9.80;1.00
20650;DHT22;10484;48.736;9.332;2024-03-23T14:07:43;9.90;1.00
20650;DHT22;10484;48.736;9.332;2024-03-23T14:10:09;9.90;1.00
20650;DHT22;10484;48.736;9.332;2024-03-23T14:12:38;9.90;1.00
20650;DHT22;10484;48.736;9.332;2024-03-23T14:15:07;10.00;1.00
20650;DHT22;10484;48.736;9.332;2024-03-23T14:17:32;10.00;1.00
20650;DHT22;10484;48.736;9.332;2024-03-23T14:19:58;10.00;1.00
20650;DHT22;10484;48.736;9.332;2024-03-23T14:22:27;10.00;1.00
20650;DHT22;10484;48.736;9.332;2024-03-23T14:24:52;10.00;1.00
20650;DHT22;10484;48.736;9.332;2024-03-23T14:27:18;10.00;1.00
20650;DHT22;10484;48.736;9.332;2024-03-23T14:29:46;10.00;1.00
20650;DHT22;10484;48.736;9.332;2024-03-23T14:32:12;10.00;1.00
20650;DHT22;10484;48.736;9.332;2024-03-23T14:34:38;9.90;1.00
20650;DHT22;10484;48.736;9.332;2024-03-23T14:37:03;9.80;1.00
20650;DHT22;10484;48.736;9.332;2024-03-23T14:39:30;9.80;1.00
20650;DHT22;10484;48.736;9.332;2024-03-23T14:41:56;9.70;1.00
20650;DHT22;10484;48.736;9.332;2024-03-23T14:44:22;9.70;1.00
20650;DHT22;10484;48.736;9.332;2024-03-23T14:46:48;9.70;1.00
20650;DHT22;10484;48.736;9.332;2024-03-23T14:49:15;9.70;1.00
20650;DHT22;10484;48.736;9.332;2024-03-23T14:51:43;9.80;1.00
20650;DHT22;10484;48.736;9.332;2024-03-23T14:54:09;9.80;1.00
20650;DHT22;10484;48.736;9.332;2024-03-23T14:56:35;9.90;1.00
20650;DHT22;10484;48.736;9.332;2024-03-23T14:59:01;9.90;1.00
20650;DHT22;10484;48.736;9.332;2024-03-23T15:01:26;9.90;1.00
20650;DHT22;10484;48.736;9.332;2024-03-23T15:03:52;9.90;1.00
20650;DHT22;10484;48.736;9.332;2024-03-23T15:06:19;10.00;1.00
20650;DHT22;10484;48.736;9.332;2024-03-23T15:08:45;10.00;1.00
20650;DHT22;10484;48.736;9.332;2024-03-23T15:11:10;10.00;1.00
20650;DHT22;10484;48.736;9.332;2024-03-23T15:13:37;10.10;1.00
20650;DHT22;10484;48.736;9.332;2024-03-23T15:16:04;10.00;1.00
20650;DHT22;10484;48.736;9.332;2024-03-23T15:18:34;9.90;1.00
20650;DHT22;10484;48.736;9.332;2024-03-23T15:21:02;9.80;1.00
20650;DHT22;10484;48.736;9.332;2024-03-23T15:23:28;9.80;1.00
20650;DHT22;10484;48.736;9.332;2024-03-23T15:25:58;9.80;1.00
20650;DHT22;10484;48.736;9.332;2024-03-23T15:28:24;9.80;1.00
20650;DHT22;10484;48.736;9.332;2024-03-23T15:31:04;9.80;1.00
20650;DHT22;10484;48.736;9.332;2024-03-23T15:33:29;9.80;1.00
20650;DHT22;10484;48.736;9.332;2024-03-23T15:35:59;9.80;1.00
20650;DHT22;10484;48.736;9.332;2024-03-23T15:38:24;9.80;1.00
20650;DHT22;10484;48.736;9.332;2024-03-23T15:40:53;9.90;1.00
20650;DHT22;10484;48.736;9.332;2024-03-23T15:43:19;9.80;1.00
20650;DHT22;10484;48.736;9.332;2024-03-23T15:45:53;9.90;1.00
20650;DHT22;10484;48.736;9.332;2024-03-23T15:48:18;9.80;1.00
20650;DHT22;10484;48.736;9.332;2024-03-23T15:50:53;9.90;1.00
20650;DHT22;10484;48.736;9.332;2024-03-23T15:53:20;9.90;1.00
20650;DHT22;10484;48.736;9.332;2024-03-23T15:55:52;9.90;1.00
20650;DHT22;10484;48.736;9.332;2024-03-23T15:58:18;9.90;1.00
20650;DHT22;10484;48.736;9.332;2024-03-23T16:00:44;9.80;1.00
20650;DHT22;10484;48.736;9.332;2024-03-23T16:03:09;9.80;1.00
20650;DHT22;10484;48.736;9.332;2024-03-23T16:05:35;9.70;1.00
20650;DHT22;10484;48.736;9.332;2024-03-23T16:08:00;9.70;1.00
20650;DHT22;10484;48.736;9.332;2024-03-23T16:10:26;9.70;1.00
20650;DHT22;10484;48.736;9.332;2024-03-23T16:12:51;9.70;1.00
20650;DHT22;10484;48.736;9.332;2024-03-23T16:15:17;9.70;1.00
20650;DHT22;10484;48.736;9.332;2024-03-23T16:17:42;9.60;1.00
20650;DHT22;10484;48.736;9.332;2024-03-23T16:20:08;9.60;1.00
20650;DHT22;10484;48.736;9.332;2024-03-23T16:22:34;9.60;1.00
20650;DHT22;10484;48.736;9.332;2024-03-23T16:25:00;9.70;1.00
20650;DHT22;10484;48.736;9.332;2024-03-23T16:27:25;9.60;1.00
20650;DHT22;10484;48.736;9.332;2024-03-23T16:29:51;9.60;1.00
20650;DHT22;10484;48.736;9.332;2024-03-23T16:32:16;9.60;1.00
20650;DHT22;10484;48.736;9.332;2024-03-23T16:34:42;9.50;1.00
20650;DHT22;10484;48.736;9.332;2024-03-23T16:37:08;9.50;1.00
20650;DHT22;10484;48.736;9.332;2024-03-23T16:39:36;9.50;1.00
20650;DHT22;10484;48.736;9.332;2024-03-23T16:42:02;9.40;1.00
20650;DHT22;10484;48.736;9.332;2024-03-23T16:44:30;9.50;1.00
20650;DHT22;10484;48.736;9.332;2024-03-23T16:46:55;9.40;1.00
20650;DHT22;10484;48.736;9.332;2024-03-23T16:49:22;9.40;1.00
20650;DHT22;10484;48.736;9.332;2024-03-23T16:51:47;9.40;1.00
20650;DHT22;10484;48.736;9.332;2024-03-23T16:54:14;9.30;1.00
20650;DHT22;10484;48.736;9.332;2024-03-23T16:56:40;9.30;1.00
20650;DHT22;10484;48.736;9.332;2024-03-23T16:59:05;9.30;1.00
20650;DHT22;10484;48.736;9.332;2024-03-23T17:01:31;9.30;1.00